ARN weather

Stockholm-Arlanda Airport
Stockholm, Stockholms län, Sweden

Public forecast

Using degrees Celsius for public forecast. Weather courtesy of forecast.io.

METAR (pilot weather report)

Retrieved 2018/12/19 15:20 UTC (0 seconds ago):

ESSA 191520Z 09008KT CAVOK 01/M00 Q1023 R01L/29//62 R08/29//70 R01R/29//74 NOSIG

TAF (pilot weather forecast)

Retrieved 2018/12/19 12:33 UTC (3 hours ago):

TAF ESSA 191130Z 1912/2012 09006KT CAVOK TEMPO 1919/1922 4000 -RASN BKN006 BECMG 1922/1924 2000 -SNRA BR BKN004 BECMG 2002/2004 9000 NSW SCT008 BKN020 PROB40 2004/2008 2000 BR